Time,TemperatureF,DewpointF,PressureIn,WindDirection,WindDirectionDegrees,WindSpeedMPH,WindSpeedGustMPH,Humidity,HourlyPrecipIn,Conditions,Clouds,dailyrainin,SoftwareType,DateUTC
2013-03-12 00:00:00,55.7,55.7,29.76,East,96,1.0,3.0,100,0.04,,RA,0.60,VWS V14.01,2013-03-12 04:00:00,
2013-03-12 00:05:00,55.6,55.6,29.76,East,96,3.0,3.0,100,0.04,,RA,0.01,VWS V14.01,2013-03-12 04:05:00,
2013-03-12 00:10:00,55.7,55.7,29.76,East,98,2.0,3.0,100,0.04,,RA,0.01,VWS V14.01,2013-03-12 04:10:00,
2013-03-12 00:15:00,55.7,55.7,29.75,ESE,117,2.0,3.0,100,0.05,,RA,0.03,VWS V14.01,2013-03-12 04:15:00,
2013-03-12 00:20:00,55.7,55.7,29.75,SE,137,3.0,4.0,100,0.08,,RA,0.06,VWS V14.01,2013-03-12 04:20:00,
2013-03-12 00:25:00,55.7,55.7,29.75,SE,137,5.0,5.0,100,0.09,,RA,0.08,VWS V14.01,2013-03-12 04:25:00,
2013-03-12 00:30:00,55.7,55.7,29.74,SE,138,2.0,4.0,100,0.10,,RA,0.09,VWS V14.01,2013-03-12 04:30:00,
2013-03-12 00:35:00,55.7,55.7,29.74,SE,138,2.0,4.0,100,0.10,,RA,0.09,VWS V14.01,2013-03-12 04:35:00,
2013-03-12 00:40:00,55.7,55.7,29.74,SSE,149,3.0,4.0,100,0.09,,RA,0.09,VWS V14.01,2013-03-12 04:40:00,
2013-03-12 00:45:00,55.7,55.7,29.74,SSE,148,0.0,3.0,100,0.09,,-RA,0.09,VWS V14.01,2013-03-12 04:45:00,
2013-03-12 00:50:00,55.7,55.7,29.74,SSE,148,0.0,2.0,100,0.09,,-RA,0.09,VWS V14.01,2013-03-12 04:50:00,
2013-03-12 00:55:00,55.6,55.6,29.74,SSE,148,1.0,3.0,100,0.09,,-RA,0.09,VWS V14.01,2013-03-12 04:55:00,
2013-03-12 01:00:00,55.7,55.7,29.73,SE,142,5.0,5.0,100,0.09,,-RA,0.09,VWS V14.01,2013-03-12 05:00:00,
2013-03-12 01:05:00,55.7,55.7,29.73,SE,141,1.0,4.0,100,0.10,,-RA,0.10,VWS V14.01,2013-03-12 05:05:00,
2013-03-12 01:10:00,55.7,55.7,29.73,SE,141,2.0,3.0,100,0.09,,-RA,0.10,VWS V14.01,2013-03-12 05:10:00,
2013-03-12 01:15:00,55.7,55.7,29.73,SE,146,4.0,4.0,100,0.09,,-RA,0.10,VWS V14.01,2013-03-12 05:15:00,
2013-03-12 01:20:00,55.7,55.7,29.73,SSE,148,3.0,5.0,100,0.07,,-RA,0.10,VWS V14.01,2013-03-12 05:20:00,
2013-03-12 01:25:00,55.7,55.7,29.73,SSE,147,2.0,6.0,100,0.04,,-RA,0.10,VWS V14.01,2013-03-12 05:25:00,
2013-03-12 01:30:00,55.7,55.7,29.72,SE,138,2.0,5.0,100,0.02,,-RA,0.10,VWS V14.01,2013-03-12 05:30:00,
2013-03-12 01:35:00,55.7,55.7,29.72,SE,139,5.0,9.0,100,0.01,,-RA,0.10,VWS V14.01,2013-03-12 05:35:00,
2013-03-12 01:40:00,55.9,55.9,29.72,SSE,150,4.0,7.0,100,0.01,,-RA,0.10,VWS V14.01,2013-03-12 05:40:00,
2013-03-12 01:45:00,55.9,55.9,29.72,SE,141,4.0,5.0,100,0.01,,-RA,0.10,VWS V14.01,2013-03-12 05:45:00,
2013-03-12 01:50:00,55.9,55.9,29.72,SE,128,6.0,7.0,100,0.01,,-RA,0.10,VWS V14.01,2013-03-12 05:50:00,
2013-03-12 01:55:00,55.9,55.9,29.72,SSE,152,5.0,5.0,100,0.01,,-RA,0.10,VWS V14.01,2013-03-12 05:55:00,
2013-03-12 02:00:00,55.9,55.9,29.71,SSE,161,3.0,7.0,100,0.01,,-RA,0.10,VWS V14.01,2013-03-12 06:00:00,
2013-03-12 02:05:00,56.0,56.0,29.71,SSE,156,5.0,6.0,100,0.01,,-RA,0.10,VWS V14.01,2013-03-12 06:05:00,
2013-03-12 02:10:00,56.0,56.0,29.71,South,177,2.0,6.0,100,0.00,,-RA,0.10,VWS V14.01,2013-03-12 06:10:00,
2013-03-12 02:15:00,56.2,56.2,29.70,SSE,160,2.0,5.0,100,0.00,,-RA,0.10,VWS V14.01,2013-03-12 06:15:00,
2013-03-12 02:20:00,56.2,56.2,29.70,SSE,147,4.0,6.0,100,0.00,,-RA,0.10,VWS V14.01,2013-03-12 06:20:00,
2013-03-12 02:25:00,56.3,56.3,29.70,SSE,165,4.0,5.0,100,0.00,,-RA,0.10,VWS V14.01,2013-03-12 06:25:00,
2013-03-12 02:30:00,56.3,56.3,29.70,South,188,2.0,6.0,100,0.00,,-RA,0.10,VWS V14.01,2013-03-12 06:30:00,
2013-03-12 02:35:00,56.5,56.5,29.70,South,176,3.0,6.0,100,0.00,,-RA,0.10,VWS V14.01,2013-03-12 06:35:00,
2013-03-12 02:40:00,56.6,56.6,29.70,SSE,150,5.0,6.0,100,0.00,,-RA,0.10,VWS V14.01,2013-03-12 06:40:00,
2013-03-12 02:45:00,56.6,56.6,29.70,SSE,167,4.0,9.0,100,0.00,,OVC013,0.10,VWS V14.01,2013-03-12 06:45:00,
2013-03-12 02:50:00,56.6,56.6,29.70,South,176,2.0,5.0,100,0.00,,OVC013,0.10,VWS V14.01,2013-03-12 06:50:00,
2013-03-12 02:55:00,56.6,56.6,29.70,South,186,4.0,7.0,100,0.00,,OVC013,0.10,VWS V14.01,2013-03-12 06:55:00,
2013-03-12 03:00:00,56.7,56.7,29.69,South,169,5.0,6.0,100,0.00,,OVC013,0.10,VWS V14.01,2013-03-12 07:00:00,
2013-03-12 03:05:00,56.7,56.7,29.69,South,173,3.0,7.0,100,0.00,,OVC013,0.10,VWS V14.01,2013-03-12 07:05:00,
2013-03-12 03:10:00,56.7,56.7,29.69,SSE,166,1.0,5.0,100,0.00,,OVC013,0.10,VWS V14.01,2013-03-12 07:10:00,
2013-03-12 03:15:00,56.7,56.7,29.69,SSW,192,2.0,6.0,100,0.00,,OVC013,0.10,VWS V14.01,2013-03-12 07:15:00,
2013-03-12 03:20:00,56.9,56.9,29.69,SSE,167,5.0,7.0,100,0.00,,OVC013,0.10,VWS V14.01,2013-03-12 07:20:00,
2013-03-12 03:25:00,56.9,56.9,29.69,South,169,3.0,7.0,100,0.00,,OVC013,0.10,VWS V14.01,2013-03-12 07:25:00,
2013-03-12 03:30:00,56.9,56.9,29.68,SSE,155,2.0,7.0,100,0.00,,OVC013,0.10,VWS V14.01,2013-03-12 07:30:00,
2013-03-12 03:35:00,56.9,56.9,29.68,SSE,163,4.0,7.0,100,0.00,,OVC013,0.10,VWS V14.01,2013-03-12 07:35:00,
2013-03-12 03:40:00,56.9,56.9,29.68,SSE,161,3.0,6.0,100,0.00,,OVC013,0.10,VWS V14.01,2013-03-12 07:40:00,
2013-03-12 03:45:00,57.0,57.0,29.68,SSE,165,4.0,7.0,100,0.01,,-RA,0.11,VWS V14.01,2013-03-12 07:45:00,
2013-03-12 03:50:00,57.0,57.0,29.68,SSE,165,3.0,8.0,100,0.01,,-RA,0.11,VWS V14.01,2013-03-12 07:50:00,
2013-03-12 03:55:00,57.0,57.0,29.68,SSW,200,1.0,7.0,100,0.01,,-RA,0.11,VWS V14.01,2013-03-12 07:55:00,
2013-03-12 04:00:00,57.0,57.0,29.68,South,169,2.0,6.0,100,0.01,,-RA,0.11,VWS V14.01,2013-03-12 08:00:00,
2013-03-12 04:05:00,57.0,57.0,29.68,SSW,198,5.0,7.0,100,0.01,,-RA,0.11,VWS V14.01,2013-03-12 08:05:00,
2013-03-12 04:10:00,57.0,57.0,29.68,SSW,207,0.0,5.0,100,0.01,,-RA,0.11,VWS V14.01,2013-03-12 08:10:00,
2013-03-12 04:15:00,57.0,57.0,29.68,SSW,211,2.0,4.0,100,0.01,,-RA,0.11,VWS V14.01,2013-03-12 08:15:00,
2013-03-12 04:20:00,57.0,57.0,29.68,SSW,192,2.0,3.0,100,0.01,,-RA,0.11,VWS V14.01,2013-03-12 08:20:00,
2013-03-12 04:25:00,57.0,57.0,29.68,South,175,2.0,6.0,100,0.01,,-RA,0.11,VWS V14.01,2013-03-12 08:25:00,
2013-03-12 04:30:00,57.2,57.2,29.67,SSW,205,2.0,4.0,100,0.01,,-RA,0.11,VWS V14.01,2013-03-12 08:30:00,
2013-03-12 04:35:00,57.0,57.0,29.67,South,190,1.0,4.0,100,0.01,,-RA,0.11,VWS V14.01,2013-03-12 08:35:00,
2013-03-12 04:40:00,57.2,57.2,29.67,SW,230,4.0,4.0,100,0.01,,-RA,0.11,VWS V14.01,2013-03-12 08:40:00,
2013-03-12 04:45:00,57.2,57.2,29.68,South,184,0.0,4.0,100,0.01,,-RA,0.11,VWS V14.01,2013-03-12 08:45:00,
2013-03-12 04:50:00,57.2,57.2,29.68,SW,236,6.0,6.0,100,0.00,,-RA,0.11,VWS V14.01,2013-03-12 08:50:00,
2013-03-12 04:55:00,57.2,57.2,29.68,WSW,248,4.0,5.0,100,0.00,,-RA,0.11,VWS V14.01,2013-03-12 08:55:00,
2013-03-12 05:00:00,57.0,57.0,29.68,SW,225,2.0,4.0,100,0.01,,-RA,0.12,VWS V14.01,2013-03-12 09:00:00,
2013-03-12 05:05:00,57.2,57.2,29.68,SSW,202,1.0,4.0,100,0.03,,-RA,0.14,VWS V14.01,2013-03-12 09:05:00,
2013-03-12 05:10:00,57.0,57.0,29.68,WSW,248,0.0,4.0,100,0.04,,-RA,0.15,VWS V14.01,2013-03-12 09:10:00,
2013-03-12 05:15:00,57.0,57.0,29.68,SW,226,0.0,3.0,100,0.04,,-RA,0.15,VWS V14.01,2013-03-12 09:15:00,
2013-03-12 05:20:00,57.0,57.0,29.68,SW,226,0.0,2.0,100,0.04,,-RA,0.15,VWS V14.01,2013-03-12 09:20:00,
2013-03-12 05:25:00,57.0,57.0,29.68,SW,226,0.0,1.0,100,0.04,,-RA,0.15,VWS V14.01,2013-03-12 09:25:00,
2013-03-12 05:30:00,56.9,56.9,29.68,SW,226,0.0,1.0,100,0.05,,-RA,0.16,VWS V14.01,2013-03-12 09:30:00,
2013-03-12 05:35:00,56.9,56.9,29.68,South,187,1.0,3.0,100,0.05,,-RA,0.16,VWS V14.01,2013-03-12 09:35:00,
2013-03-12 05:40:00,56.7,56.7,29.68,SW,232,0.0,4.0,100,0.05,,-RA,0.16,VWS V14.01,2013-03-12 09:40:00,
2013-03-12 05:45:00,56.7,56.7,29.69,SW,216,1.0,4.0,100,0.05,,-RA,0.16,VWS V14.01,2013-03-12 09:45:00,
2013-03-12 05:50:00,56.7,56.7,29.69,West,279,1.0,5.0,100,0.05,,OVC004,0.16,VWS V14.01,2013-03-12 09:50:00,
2013-03-12 05:55:00,56.7,56.7,29.69,WSW,252,3.0,5.0,100,0.05,,OVC004,0.16,VWS V14.01,2013-03-12 09:55:00,
2013-03-12 06:00:00,56.6,56.6,29.69,West,266,0.0,3.0,100,0.05,,OVC004,0.16,VWS V14.01,2013-03-12 10:00:00,
2013-03-12 06:05:00,56.6,56.6,29.69,SW,215,1.0,4.0,100,0.03,,OVC004,0.16,VWS V14.01,2013-03-12 10:05:00,
2013-03-12 06:10:00,56.5,56.5,29.69,West,274,0.0,5.0,100,0.02,,OVC004,0.16,VWS V14.01,2013-03-12 10:10:00,
2013-03-12 06:15:00,56.5,56.5,29.69,SW,223,0.0,5.0,100,0.01,,OVC004,0.16,VWS V14.01,2013-03-12 10:15:00,
2013-03-12 06:20:00,56.5,56.5,29.69,SW,233,3.0,3.0,100,0.01,,OVC004,0.16,VWS V14.01,2013-03-12 10:20:00,
2013-03-12 06:25:00,56.3,56.3,29.69,West,278,2.0,3.0,100,0.01,,OVC004,0.16,VWS V14.01,2013-03-12 10:25:00,
2013-03-12 06:30:00,56.3,56.3,29.70,SSW,195,2.0,3.0,100,0.01,,OVC004,0.16,VWS V14.01,2013-03-12 10:30:00,
2013-03-12 06:35:00,56.2,56.2,29.70,WSW,258,2.0,5.0,100,0.00,,OVC004,0.16,VWS V14.01,2013-03-12 10:35:00,
2013-03-12 06:40:00,56.0,56.0,29.70,SSW,211,0.0,6.0,100,0.00,,OVC004,0.16,VWS V14.01,2013-03-12 10:40:00,
2013-03-12 06:45:00,55.9,55.9,29.70,SW,229,1.0,2.0,100,0.00,,OVC004,0.16,VWS V14.01,2013-03-12 10:45:00,
2013-03-12 06:50:00,55.7,55.7,29.70,SW,224,0.0,5.0,100,0.00,,-RA,0.16,VWS V14.01,2013-03-12 10:50:00,
2013-03-12 06:55:00,55.6,55.6,29.70,SSW,207,2.0,5.0,100,0.00,,-RA,0.16,VWS V14.01,2013-03-12 10:55:00,
2013-03-12 07:00:00,55.4,55.4,29.71,SW,221,4.0,7.0,100,0.00,,-RA,0.16,VWS V14.01,2013-03-12 11:00:00,
2013-03-12 07:05:00,55.1,55.1,29.71,West,281,3.0,5.0,100,0.00,,-RA,0.16,VWS V14.01,2013-03-12 11:05:00,
2013-03-12 07:10:00,55.0,55.0,29.71,WSW,249,1.0,6.0,100,0.00,,-RA,0.16,VWS V14.01,2013-03-12 11:10:00,
2013-03-12 07:15:00,54.8,54.8,29.73,WSW,252,5.0,6.0,100,0.00,,-RA,0.16,VWS V14.01,2013-03-12 11:15:00,
2013-03-12 07:20:00,54.7,54.7,29.73,SSW,211,2.0,6.0,100,0.00,,-RA,0.16,VWS V14.01,2013-03-12 11:20:00,
2013-03-12 07:25:00,54.4,54.4,29.73,WNW,295,3.0,5.0,100,0.00,,-RA,0.16,VWS V14.01,2013-03-12 11:25:00,
2013-03-12 07:30:00,54.1,54.1,29.73,SW,231,1.0,7.0,100,0.00,,-RA,0.16,VWS V14.01,2013-03-12 11:30:00,
2013-03-12 07:35:00,53.8,53.8,29.73,West,263,1.0,6.0,100,0.00,,-RA,0.16,VWS V14.01,2013-03-12 11:35:00,
2013-03-12 07:40:00,53.6,53.6,29.73,SSW,198,1.0,9.0,100,0.00,,-RA,0.16,VWS V14.01,2013-03-12 11:40:00,
2013-03-12 07:45:00,53.5,53.5,29.73,SW,215,3.0,4.0,100,0.00,,OVC006,0.16,VWS V14.01,2013-03-12 11:45:00,
2013-03-12 07:50:00,53.5,53.5,29.73,SW,236,2.0,5.0,100,0.00,,OVC006,0.16,VWS V14.01,2013-03-12 11:50:00,
2013-03-12 07:55:00,53.3,53.3,29.73,WSW,243,4.0,5.0,100,0.00,,OVC006,0.16,VWS V14.01,2013-03-12 11:55:00,
2013-03-12 08:00:00,53.2,53.2,29.73,WSW,254,3.0,9.0,100,0.00,,OVC006,0.16,VWS V14.01,2013-03-12 12:00:00,
2013-03-12 08:05:00,52.8,52.8,29.73,WSW,245,1.0,9.0,100,0.00,,OVC006,0.16,VWS V14.01,2013-03-12 12:05:00,
2013-03-12 08:10:00,52.5,52.5,29.73,SSE,167,2.0,5.0,100,0.00,,OVC006,0.16,VWS V14.01,2013-03-12 12:10:00,
2013-03-12 08:15:00,52.2,52.2,29.75,SSW,204,4.0,8.0,100,0.00,,OVC006,0.16,VWS V14.01,2013-03-12 12:15:00,
2013-03-12 08:20:00,51.4,51.4,29.75,SW,230,1.0,8.0,100,0.00,,OVC006,0.16,VWS V14.01,2013-03-12 12:20:00,
2013-03-12 08:25:00,51.1,51.1,29.75,West,272,4.0,8.0,100,0.00,,OVC006,0.16,VWS V14.01,2013-03-12 12:25:00,
2013-03-12 08:30:00,50.7,50.7,29.76,West,266,3.0,7.0,100,0.00,,OVC006,0.16,VWS V14.01,2013-03-12 12:30:00,
2013-03-12 08:35:00,50.2,50.2,29.76,SW,236,2.0,7.0,100,0.00,,OVC006,0.16,VWS V14.01,2013-03-12 12:35:00,
2013-03-12 08:40:00,49.9,49.9,29.76,WSW,252,5.0,7.0,100,0.00,,OVC006,0.16,VWS V14.01,2013-03-12 12:40:00,
2013-03-12 08:45:00,49.8,49.8,29.77,WNW,288,4.0,8.0,100,0.00,,OVC006,0.16,VWS V14.01,2013-03-12 12:45:00,
2013-03-12 08:50:00,49.6,49.6,29.77,West,259,4.0,9.0,100,0.00,,OVC006,0.16,VWS V14.01,2013-03-12 12:50:00,
2013-03-12 08:55:00,49.6,49.6,29.77,West,265,3.0,6.0,100,0.00,,OVC006,0.16,VWS V14.01,2013-03-12 12:55:00,
2013-03-12 09:00:00,49.6,49.6,29.78,West,265,2.0,9.0,100,0.00,,OVC006,0.16,VWS V14.01,2013-03-12 13:00:00,
2013-03-12 09:05:00,49.6,49.6,29.78,West,275,1.0,7.0,100,0.00,,OVC006,0.16,VWS V14.01,2013-03-12 13:05:00,
2013-03-12 09:10:00,49.8,49.8,29.78,West,265,0.0,5.0,100,0.00,,OVC006,0.16,VWS V14.01,2013-03-12 13:10:00,
2013-03-12 09:15:00,49.8,49.8,29.80,WSW,257,4.0,6.0,100,0.00,,OVC006,0.16,VWS V14.01,2013-03-12 13:15:00,
2013-03-12 09:20:00,49.6,49.6,29.80,West,269,3.0,4.0,100,0.00,,OVC006,0.16,VWS V14.01,2013-03-12 13:20:00,
2013-03-12 09:25:00,49.6,49.3,29.80,WSW,246,3.0,5.0,99,0.00,,OVC006,0.16,VWS V14.01,2013-03-12 13:25:00,
2013-03-12 09:30:00,49.6,49.3,29.79,WNW,283,0.0,9.0,99,0.00,,OVC006,0.16,VWS V14.01,2013-03-12 13:30:00,
2013-03-12 09:35:00,49.6,49.1,29.79,SSW,213,0.0,4.0,98,0.00,,OVC006,0.16,VWS V14.01,2013-03-12 13:35:00,
2013-03-12 09:40:00,49.8,49.3,29.79,SW,228,0.0,3.0,98,0.00,,OVC006,0.16,VWS V14.01,2013-03-12 13:40:00,
2013-03-12 09:45:00,49.8,48.7,29.80,SW,227,2.0,5.0,96,0.00,,OVC006,0.16,VWS V14.01,2013-03-12 13:45:00,
2013-03-12 09:50:00,49.8,48.7,29.80,SW,235,0.0,3.0,96,0.00,,OVC006,0.16,VWS V14.01,2013-03-12 13:50:00,
2013-03-12 09:55:00,49.8,48.2,29.80,SW,219,0.0,5.0,94,0.00,,OVC006,0.16,VWS V14.01,2013-03-12 13:55:00,
2013-03-12 10:00:00,49.9,48.2,29.80,West,260,2.0,4.0,94,0.00,,OVC006,0.16,VWS V14.01,2013-03-12 14:00:00,
2013-03-12 10:05:00,50.1,48.4,29.80,WNW,282,1.0,7.0,94,0.00,,OVC006,0.16,VWS V14.01,2013-03-12 14:05:00,
2013-03-12 10:10:00,50.4,48.7,29.80,West,273,1.0,4.0,94,0.00,,OVC006,0.16,VWS V14.01,2013-03-12 14:10:00,
2013-03-12 10:15:00,50.5,48.3,29.80,SSW,193,1.0,5.0,92,0.00,,OVC006,0.16,VWS V14.01,2013-03-12 14:15:00,
2013-03-12 10:20:00,50.7,48.8,29.80,SW,229,2.0,3.0,93,0.00,,OVC006,0.16,VWS V14.01,2013-03-12 14:20:00,
2013-03-12 10:25:00,50.8,48.3,29.80,SW,229,0.0,6.0,91,0.00,,OVC006,0.16,VWS V14.01,2013-03-12 14:25:00,
2013-03-12 10:30:00,51.0,48.2,29.80,WNW,282,3.0,5.0,90,0.00,,OVC006,0.16,VWS V14.01,2013-03-12 14:30:00,
2013-03-12 10:35:00,51.0,47.6,29.80,WSW,248,0.0,5.0,88,0.00,,OVC006,0.16,VWS V14.01,2013-03-12 14:35:00,
2013-03-12 10:40:00,51.1,47.7,29.80,WSW,250,0.0,2.0,88,0.00,,OVC006,0.16,VWS V14.01,2013-03-12 14:40:00,
2013-03-12 10:45:00,51.3,47.6,29.80,SW,217,3.0,3.0,87,0.00,,OVC010,0.16,VWS V14.01,2013-03-12 14:45:00,
2013-03-12 10:50:00,51.3,47.9,29.80,South,175,0.0,4.0,88,0.00,,OVC010,0.16,VWS V14.01,2013-03-12 14:50:00,
2013-03-12 10:55:00,51.6,48.2,29.80,South,175,0.0,0.0,88,0.00,,OVC010,0.16,VWS V14.01,2013-03-12 14:55:00,
2013-03-12 11:00:00,51.6,47.9,29.80,SSW,204,0.0,5.0,87,0.00,,OVC010,0.16,VWS V14.01,2013-03-12 15:00:00,
2013-03-12 11:05:00,51.9,48.5,29.80,SSW,204,0.0,0.0,88,0.00,,OVC010,0.16,VWS V14.01,2013-03-12 15:05:00,
2013-03-12 11:10:00,52.2,48.2,29.80,SSW,208,0.0,3.0,86,0.00,,OVC010,0.16,VWS V14.01,2013-03-12 15:10:00,
2013-03-12 11:15:00,52.3,48.2,29.81,SW,221,0.0,3.0,86,0.00,,OVC010,0.16,VWS V14.01,2013-03-12 15:15:00,
2013-03-12 11:20:00,52.6,48.2,29.81,West,268,2.0,3.0,85,0.00,,OVC010,0.16,VWS V14.01,2013-03-12 15:20:00,
2013-03-12 11:25:00,52.9,48.5,29.81,West,268,0.0,2.0,85,0.00,,OVC010,0.16,VWS V14.01,2013-03-12 15:25:00,
2013-03-12 11:30:00,53.2,49.1,29.82,West,281,3.0,4.0,86,0.00,,OVC010,0.16,VWS V14.01,2013-03-12 15:30:00,
2013-03-12 11:35:00,53.3,48.6,29.82,NW,309,1.0,6.0,84,0.00,,OVC010,0.16,VWS V14.01,2013-03-12 15:35:00,
2013-03-12 11:40:00,53.5,49.4,29.82,NW,309,0.0,4.0,86,0.00,,OVC010,0.16,VWS V14.01,2013-03-12 15:40:00,
2013-03-12 11:45:00,53.6,48.9,29.81,WSW,248,2.0,4.0,84,0.00,,OVC016,0.16,VWS V14.01,2013-03-12 15:45:00,
2013-03-12 11:50:00,53.6,49.2,29.81,SW,226,0.0,3.0,85,0.00,,OVC016,0.16,VWS V14.01,2013-03-12 15:50:00,
2013-03-12 11:55:00,53.8,49.1,29.81,NW,306,3.0,4.0,84,0.00,,OVC016,0.16,VWS V14.01,2013-03-12 15:55:00,
2013-03-12 12:00:00,54.2,49.5,29.81,South,182,2.0,3.0,84,0.00,,OVC016,0.16,VWS V14.01,2013-03-12 16:00:00,
2013-03-12 12:05:00,54.7,50.0,29.81,SW,236,0.0,3.0,84,0.00,,OVC016,0.16,VWS V14.01,2013-03-12 16:05:00,
2013-03-12 12:10:00,55.1,49.4,29.81,West,269,4.0,4.0,81,0.00,,OVC016,0.16,VWS V14.01,2013-03-12 16:10:00,
2013-03-12 12:15:00,55.4,49.0,29.81,NNW,337,0.0,4.0,79,0.00,,OVC016,0.16,VWS V14.01,2013-03-12 16:15:00,
2013-03-12 12:20:00,55.7,49.6,29.81,WSW,238,0.0,2.0,80,0.00,,OVC016,0.16,VWS V14.01,2013-03-12 16:20:00,
2013-03-12 12:25:00,56.2,49.4,29.81,NW,314,2.0,5.0,78,0.00,,OVC016,0.16,VWS V14.01,2013-03-12 16:25:00,
2013-03-12 12:30:00,56.6,49.8,29.82,WNW,290,2.0,4.0,78,0.00,,OVC016,0.16,VWS V14.01,2013-03-12 16:30:00,
2013-03-12 12:35:00,56.9,49.1,29.82,NW,311,2.0,4.0,75,0.00,,OVC016,0.16,VWS V14.01,2013-03-12 16:35:00,
2013-03-12 12:40:00,57.5,49.7,29.82,WNW,297,5.0,5.0,75,0.00,,OVC016,0.16,VWS V14.01,2013-03-12 16:40:00,
2013-03-12 12:45:00,58.0,49.4,29.81,WNW,301,4.0,6.0,73,0.00,,BKN018,0.16,VWS V14.01,2013-03-12 16:45:00,
2013-03-12 12:50:00,58.1,50.6,29.81,NNW,333,1.0,5.0,76,0.00,,BKN018,0.16,VWS V14.01,2013-03-12 16:50:00,
2013-03-12 12:55:00,58.4,50.9,29.81,NW,316,4.0,7.0,76,0.00,,BKN018,0.16,VWS V14.01,2013-03-12 16:55:00,
2013-03-12 13:00:00,58.9,49.9,29.82,NW,307,1.0,5.0,72,0.00,,BKN018,0.16,VWS V14.01,2013-03-12 17:00:00,
2013-03-12 13:05:00,59.3,49.5,29.82,WNW,284,3.0,5.0,70,0.00,,BKN018,0.16,VWS V14.01,2013-03-12 17:05:00,
2013-03-12 13:10:00,59.9,48.9,29.82,NNW,333,0.0,7.0,67,0.00,,BKN018,0.16,VWS V14.01,2013-03-12 17:10:00,
2013-03-12 13:15:00,60.4,51.0,29.81,NW,325,3.0,4.0,71,0.00,,BKN018,0.16,VWS V14.01,2013-03-12 17:15:00,
2013-03-12 13:20:00,60.9,49.5,29.81,NNW,335,3.0,5.0,66,0.00,,BKN018,0.16,VWS V14.01,2013-03-12 17:20:00,
2013-03-12 13:25:00,60.9,48.7,29.81,NNW,336,2.0,6.0,64,0.00,,BKN018,0.16,VWS V14.01,2013-03-12 17:25:00,
2013-03-12 13:30:00,61.0,49.2,29.81,WNW,298,0.0,6.0,65,0.00,,BKN018,0.16,VWS V14.01,2013-03-12 17:30:00,
2013-03-12 13:35:00,61.3,50.3,29.81,WNW,296,1.0,5.0,67,0.00,,BKN018,0.16,VWS V14.01,2013-03-12 17:35:00,
2013-03-12 13:40:00,61.6,48.9,29.81,NW,304,0.0,5.0,63,0.00,,BKN018,0.16,VWS V14.01,2013-03-12 17:40:00,
2013-03-12 13:45:00,62.3,49.1,29.81,North,360,0.0,5.0,62,0.00,,SCT018,0.16,VWS V14.01,2013-03-12 17:45:00,
2013-03-12 13:50:00,62.6,48.5,29.81,NW,316,3.0,5.0,60,0.00,,SCT018,0.16,VWS V14.01,2013-03-12 17:50:00,
2013-03-12 13:55:00,62.7,48.2,29.81,SSW,209,4.0,6.0,59,0.00,,SCT018,0.16,VWS V14.01,2013-03-12 17:55:00,
2013-03-12 14:00:00,62.9,48.8,29.80,SSW,201,3.0,5.0,60,0.00,,SCT018,0.16,VWS V14.01,2013-03-12 18:00:00,
2013-03-12 14:05:00,62.9,48.4,29.80,WNW,284,0.0,5.0,59,0.00,,SCT018,0.16,VWS V14.01,2013-03-12 18:05:00,
2013-03-12 14:10:00,63.4,49.7,29.80,SW,228,2.0,5.0,61,0.00,,SCT018,0.16,VWS V14.01,2013-03-12 18:10:00,
2013-03-12 14:15:00,63.2,48.7,29.80,West,269,0.0,5.0,59,0.00,,SCT018,0.16,VWS V14.01,2013-03-12 18:15:00,
2013-03-12 14:20:00,64.0,48.5,29.80,SW,236,2.0,4.0,57,0.00,,SCT018,0.16,VWS V14.01,2013-03-12 18:20:00,
2013-03-12 14:25:00,64.8,49.2,29.80,WNW,288,1.0,4.0,57,0.00,,SCT018,0.16,VWS V14.01,2013-03-12 18:25:00,
2013-03-12 14:30:00,65.6,48.5,29.79,North,10,1.0,4.0,54,0.00,,SCT018,0.16,VWS V14.01,2013-03-12 18:30:00,
2013-03-12 14:35:00,65.8,48.7,29.79,West,265,5.0,10.0,54,0.00,,SCT018,0.16,VWS V14.01,2013-03-12 18:35:00,
2013-03-12 14:40:00,66.1,48.5,29.79,NW,304,0.0,5.0,53,0.00,,SCT018,0.16,VWS V14.01,2013-03-12 18:40:00,
2013-03-12 14:45:00,66.4,50.7,29.79,NW,306,2.0,4.0,57,0.00,,CLR,0.16,VWS V14.01,2013-03-12 18:45:00,
2013-03-12 14:50:00,66.6,47.9,29.79,SE,145,0.0,6.0,51,0.00,,CLR,0.16,VWS V14.01,2013-03-12 18:50:00,
2013-03-12 14:55:00,65.6,48.5,29.79,SSW,203,0.0,4.0,54,0.00,,CLR,0.16,VWS V14.01,2013-03-12 18:55:00,
2013-03-12 15:00:00,65.6,49.0,29.79,West,275,4.0,5.0,55,0.00,,CLR,0.16,VWS V14.01,2013-03-12 19:00:00,
2013-03-12 15:05:00,65.6,47.5,29.79,SW,217,0.0,6.0,52,0.00,,CLR,0.16,VWS V14.01,2013-03-12 19:05:00,
2013-03-12 15:10:00,65.3,47.2,29.79,South,173,0.0,7.0,52,0.00,,CLR,0.16,VWS V14.01,2013-03-12 19:10:00,
2013-03-12 15:15:00,66.0,46.8,29.78,WNW,288,5.0,6.0,50,0.00,,CLR,0.16,VWS V14.01,2013-03-12 19:15:00,
2013-03-12 15:20:00,66.4,45.6,29.78,WSW,257,2.0,6.0,47,0.00,,CLR,0.16,VWS V14.01,2013-03-12 19:20:00,
2013-03-12 15:25:00,66.8,47.6,29.78,SSW,206,3.0,9.0,50,0.00,,CLR,0.16,VWS V14.01,2013-03-12 19:25:00,
2013-03-12 15:30:00,66.4,45.0,29.78,SW,222,0.0,4.0,46,0.00,,CLR,0.16,VWS V14.01,2013-03-12 19:30:00,
2013-03-12 15:35:00,66.8,47.6,29.78,West,272,1.0,5.0,50,0.00,,CLR,0.16,VWS V14.01,2013-03-12 19:35:00,
2013-03-12 15:40:00,67.4,44.2,29.78,NNW,330,3.0,9.0,43,0.00,,CLR,0.16,VWS V14.01,2013-03-12 19:40:00,
2013-03-12 15:45:00,67.6,44.3,29.77,South,184,2.0,9.0,43,0.00,,CLR,0.16,VWS V14.01,2013-03-12 19:45:00,
2013-03-12 15:50:00,67.4,43.5,29.77,SW,215,3.0,6.0,42,0.00,,CLR,0.16,VWS V14.01,2013-03-12 19:50:00,
2013-03-12 15:55:00,67.4,44.2,29.77,West,278,3.0,4.0,43,0.00,,CLR,0.16,VWS V14.01,2013-03-12 19:55:00,
2013-03-12 16:00:00,67.8,42.0,29.77,WSW,244,3.0,9.0,39,0.00,,CLR,0.16,VWS V14.01,2013-03-12 20:00:00,
2013-03-12 16:05:00,67.8,43.3,29.77,WSW,255,0.0,11.0,41,0.00,,CLR,0.16,VWS V14.01,2013-03-12 20:05:00,
2013-03-12 16:10:00,67.6,42.4,29.77,South,188,5.0,5.0,40,0.00,,CLR,0.16,VWS V14.01,2013-03-12 20:10:00,
2013-03-12 16:15:00,67.4,43.5,29.77,SW,235,0.0,4.0,42,0.00,,CLR,0.16,VWS V14.01,2013-03-12 20:15:00,
2013-03-12 16:20:00,68.1,40.2,29.77,West,278,2.0,7.0,36,0.00,,CLR,0.16,VWS V14.01,2013-03-12 20:20:00,
2013-03-12 16:25:00,68.1,41.6,29.77,South,182,1.0,5.0,38,0.00,,CLR,0.16,VWS V14.01,2013-03-12 20:25:00,
2013-03-12 16:30:00,67.4,41.6,29.78,South,185,3.0,9.0,39,0.00,,CLR,0.16,VWS V14.01,2013-03-12 20:30:00,
2013-03-12 16:35:00,67.3,42.8,29.78,SSE,159,3.0,9.0,41,0.00,,CLR,0.16,VWS V14.01,2013-03-12 20:35:00,
2013-03-12 16:40:00,67.1,41.3,29.78,South,175,0.0,8.0,39,0.00,,CLR,0.16,VWS V14.01,2013-03-12 20:40:00,
2013-03-12 16:45:00,66.9,40.5,29.78,SSW,210,1.0,6.0,38,0.00,,CLR,0.16,VWS V14.01,2013-03-12 20:45:00,
2013-03-12 16:50:00,67.1,40.7,29.78,WSW,242,0.0,5.0,38,0.00,,CLR,0.16,VWS V14.01,2013-03-12 20:50:00,
2013-03-12 16:55:00,67.8,40.6,29.78,SW,226,1.0,7.0,37,0.00,,CLR,0.16,VWS V14.01,2013-03-12 20:55:00,
2013-03-12 17:00:00,68.3,38.9,29.78,South,183,1.0,5.0,34,0.00,,CLR,0.16,VWS V14.01,2013-03-12 21:00:00,
2013-03-12 17:05:00,67.4,38.1,29.78,WSW,256,4.0,6.0,34,0.00,,CLR,0.16,VWS V14.01,2013-03-12 21:05:00,
2013-03-12 17:10:00,67.6,39.0,29.78,SSE,153,1.0,4.0,35,0.00,,CLR,0.16,VWS V14.01,2013-03-12 21:10:00,
2013-03-12 17:15:00,67.9,38.5,29.78,SSW,213,3.0,5.0,34,0.00,,CLR,0.16,VWS V14.01,2013-03-12 21:15:00,
2013-03-12 17:20:00,67.8,36.1,29.78,WSW,254,0.0,5.0,31,0.00,,CLR,0.16,VWS V14.01,2013-03-12 21:20:00,
2013-03-12 17:25:00,67.8,36.9,29.78,SSE,168,1.0,5.0,32,0.00,,CLR,0.16,VWS V14.01,2013-03-12 21:25:00,
2013-03-12 17:30:00,67.6,35.9,29.78,SW,214,0.0,7.0,31,0.00,,CLR,0.16,VWS V14.01,2013-03-12 21:30:00,
2013-03-12 17:35:00,67.9,37.8,29.78,SSW,199,0.0,7.0,33,0.00,,CLR,0.16,VWS V14.01,2013-03-12 21:35:00,
2013-03-12 17:40:00,67.6,37.5,29.78,SE,136,4.0,4.0,33,0.00,,CLR,0.16,VWS V14.01,2013-03-12 21:40:00,
2013-03-12 17:45:00,67.1,37.8,29.78,South,190,0.0,5.0,34,0.00,,CLR,0.16,VWS V14.01,2013-03-12 21:45:00,
2013-03-12 17:50:00,67.4,35.7,29.78,SW,223,6.0,6.0,31,0.00,,CLR,0.16,VWS V14.01,2013-03-12 21:50:00,
2013-03-12 17:55:00,67.4,37.3,29.78,SW,219,0.0,6.0,33,0.00,,CLR,0.16,VWS V14.01,2013-03-12 21:55:00,
2013-03-12 18:00:00,67.4,36.5,29.78,SSW,209,3.0,6.0,32,0.00,,CLR,0.16,VWS V14.01,2013-03-12 22:00:00,
2013-03-12 18:05:00,67.3,34.8,29.78,WSW,238,0.0,6.0,30,0.00,,CLR,0.16,VWS V14.01,2013-03-12 22:05:00,
2013-03-12 18:10:00,67.1,33.8,29.78,WSW,241,3.0,6.0,29,0.00,,CLR,0.16,VWS V14.01,2013-03-12 22:10:00,
2013-03-12 18:15:00,66.8,34.4,29.78,SSW,196,0.0,4.0,30,0.00,,CLR,0.16,VWS V14.01,2013-03-12 22:15:00,
2013-03-12 18:20:00,66.6,33.4,29.78,SE,145,1.0,5.0,29,0.00,,CLR,0.16,VWS V14.01,2013-03-12 22:20:00,
2013-03-12 18:25:00,66.4,33.2,29.78,SSW,194,3.0,5.0,29,0.00,,CLR,0.16,VWS V14.01,2013-03-12 22:25:00,
2013-03-12 18:30:00,66.6,33.4,29.79,SSW,213,0.0,5.0,29,0.00,,CLR,0.16,VWS V14.01,2013-03-12 22:30:00,
2013-03-12 18:35:00,66.8,33.5,29.79,WSW,237,6.0,6.0,29,0.00,,CLR,0.16,VWS V14.01,2013-03-12 22:35:00,
2013-03-12 18:40:00,66.6,33.4,29.79,WSW,256,4.0,9.0,29,0.00,,CLR,0.16,VWS V14.01,2013-03-12 22:40:00,
2013-03-12 18:45:00,66.3,32.2,29.80,SW,214,4.0,6.0,28,0.00,,CLR,0.16,VWS V14.01,2013-03-12 22:45:00,
2013-03-12 18:50:00,65.8,33.5,29.80,SW,225,2.0,8.0,30,0.00,,CLR,0.16,VWS V14.01,2013-03-12 22:50:00,
2013-03-12 18:55:00,65.5,34.1,29.80,WNW,288,4.0,6.0,31,0.00,,CLR,0.16,VWS V14.01,2013-03-12 22:55:00,
2013-03-12 19:00:00,65.3,33.9,29.80,West,269,3.0,4.0,31,0.00,,CLR,0.16,VWS V14.01,2013-03-12 23:00:00,
2013-03-12 19:05:00,65.0,33.7,29.80,SW,236,1.0,6.0,31,0.00,,CLR,0.16,VWS V14.01,2013-03-12 23:05:00,
2013-03-12 19:10:00,64.7,34.2,29.80,West,272,2.0,9.0,32,0.00,,CLR,0.16,VWS V14.01,2013-03-12 23:10:00,
2013-03-12 19:15:00,64.3,34.6,29.82,West,259,3.0,5.0,33,0.00,,CLR,0.16,VWS V14.01,2013-03-12 23:15:00,
2013-03-12 19:20:00,64.0,35.8,29.82,WSW,253,3.0,5.0,35,0.00,,CLR,0.16,VWS V14.01,2013-03-12 23:20:00,
2013-03-12 19:25:00,63.7,35.6,29.82,SW,235,0.0,6.0,35,0.00,,CLR,0.16,VWS V14.01,2013-03-12 23:25:00,
2013-03-12 19:30:00,63.2,34.4,29.83,West,267,0.0,3.0,34,0.00,,CLR,0.16,VWS V14.01,2013-03-12 23:30:00,
2013-03-12 19:35:00,62.7,36.1,29.83,WNW,300,0.0,2.0,37,0.00,,CLR,0.16,VWS V14.01,2013-03-12 23:35:00,
2013-03-12 19:40:00,62.3,35.7,29.83,West,272,0.0,4.0,37,0.00,,CLR,0.16,VWS V14.01,2013-03-12 23:40:00,
2013-03-12 19:45:00,61.8,36.0,29.84,NW,304,0.0,4.0,38,0.00,,CLR,0.16,VWS V14.01,2013-03-12 23:45:00,
2013-03-12 19:50:00,61.3,35.5,29.84,West,277,0.0,4.0,38,0.00,,CLR,0.16,VWS V14.01,2013-03-12 23:50:00,
2013-03-12 19:55:00,60.7,36.9,29.84,NW,305,2.0,4.0,41,0.00,,CLR,0.16,VWS V14.01,2013-03-12 23:55:00,
2013-03-12 20:00:00,59.9,36.8,29.85,NW,305,0.0,2.0,42,0.00,,CLR,0.16,VWS V14.01,2013-03-13 00:00:00,
2013-03-12 20:05:00,59.2,36.7,29.85,NW,305,0.0,2.0,43,0.00,,CLR,0.16,VWS V14.01,2013-03-13 00:05:00,
2013-03-12 20:10:00,58.7,31.1,29.85,NW,304,3.0,6.0,35,0.00,,CLR,0.16,VWS V14.01,2013-03-13 00:10:00,
2013-03-12 20:15:00,58.9,25.9,29.86,WNW,298,0.0,7.0,28,0.00,,CLR,0.16,VWS V14.01,2013-03-13 00:15:00,
2013-03-12 20:20:00,59.0,25.1,29.86,WNW,292,3.0,7.0,27,0.00,,CLR,0.16,VWS V14.01,2013-03-13 00:20:00,
2013-03-12 20:25:00,59.0,22.3,29.86,NW,304,2.0,6.0,24,0.00,,CLR,0.16,VWS V14.01,2013-03-13 00:25:00,
2013-03-12 20:30:00,59.0,24.2,29.87,WNW,284,3.0,4.0,26,0.00,,CLR,0.16,VWS V14.01,2013-03-13 00:30:00,
2013-03-12 20:35:00,58.7,23.0,29.87,WNW,302,0.0,3.0,25,0.00,,CLR,0.16,VWS V14.01,2013-03-13 00:35:00,
2013-03-12 20:40:00,58.3,23.6,29.87,WNW,302,0.0,3.0,26,0.00,,CLR,0.16,VWS V14.01,2013-03-13 00:40:00,
2013-03-12 20:45:00,57.6,23.9,29.88,NW,321,3.0,4.0,27,0.00,,CLR,0.16,VWS V14.01,2013-03-13 00:45:00,
2013-03-12 20:50:00,57.2,23.5,29.88,NW,304,0.0,3.0,27,0.00,,CLR,0.16,VWS V14.01,2013-03-13 00:50:00,
2013-03-12 20:55:00,56.7,25.6,29.88,NW,304,4.0,4.0,30,0.00,,CLR,0.16,VWS V14.01,2013-03-13 00:55:00,
2013-03-12 21:00:00,56.3,22.8,29.89,NW,316,5.0,5.0,27,0.00,,CLR,0.16,VWS V14.01,2013-03-13 01:00:00,
2013-03-12 21:05:00,56.0,22.5,29.89,NW,313,4.0,6.0,27,0.00,,CLR,0.16,VWS V14.01,2013-03-13 01:05:00,
2013-03-12 21:10:00,56.0,24.2,29.89,WNW,301,2.0,6.0,29,0.00,,CLR,0.16,VWS V14.01,2013-03-13 01:10:00,
2013-03-12 21:15:00,55.7,23.1,29.90,NW,311,0.0,4.0,28,0.00,,CLR,0.16,VWS V14.01,2013-03-13 01:15:00,
2013-03-12 21:20:00,55.3,26.7,29.90,NW,311,0.0,0.0,33,0.00,,CLR,0.16,VWS V14.01,2013-03-13 01:20:00,
2013-03-12 21:25:00,54.8,25.5,29.90,NW,311,0.0,0.0,32,0.00,,CLR,0.16,VWS V14.01,2013-03-13 01:25:00,
2013-03-12 21:30:00,54.5,28.8,29.91,NW,311,0.0,0.0,37,0.00,,CLR,0.16,VWS V14.01,2013-03-13 01:30:00,
2013-03-12 21:35:00,54.1,29.7,29.91,NW,311,0.0,0.0,39,0.00,,CLR,0.16,VWS V14.01,2013-03-13 01:35:00,
2013-03-12 21:40:00,53.6,31.7,29.91,NW,311,0.0,0.0,43,0.00,,CLR,0.16,VWS V14.01,2013-03-13 01:40:00,
2013-03-12 21:45:00,53.2,33.5,29.92,NW,311,0.0,0.0,47,0.00,,CLR,0.16,VWS V14.01,2013-03-13 01:45:00,
2013-03-12 21:50:00,52.8,32.6,29.92,NW,311,0.0,0.0,46,0.00,,CLR,0.16,VWS V14.01,2013-03-13 01:50:00,
2013-03-12 21:55:00,52.2,33.1,29.92,NW,311,0.0,0.0,48,0.00,,CLR,0.16,VWS V14.01,2013-03-13 01:55:00,
2013-03-12 22:00:00,51.7,36.1,29.92,NW,311,0.0,0.0,55,0.00,,CLR,0.16,VWS V14.01,2013-03-13 02:00:00,
2013-03-12 22:05:00,51.1,34.6,29.92,NW,311,0.0,0.0,53,0.00,,CLR,0.16,VWS V14.01,2013-03-13 02:05:00,
2013-03-12 22:10:00,50.7,34.2,29.92,NW,311,0.0,0.0,53,0.00,,CLR,0.16,VWS V14.01,2013-03-13 02:10:00,
2013-03-12 22:15:00,50.2,34.2,29.93,NW,311,0.0,0.0,54,0.00,,CLR,0.16,VWS V14.01,2013-03-13 02:15:00,
2013-03-12 22:20:00,49.9,35.3,29.93,NW,311,0.0,3.0,57,0.00,,CLR,0.16,VWS V14.01,2013-03-13 02:20:00,
2013-03-12 22:25:00,49.6,30.7,29.93,NW,311,2.0,4.0,48,0.00,,CLR,0.16,VWS V14.01,2013-03-13 02:25:00,
2013-03-12 22:30:00,49.6,30.2,29.93,NW,311,1.0,3.0,47,0.00,,CLR,0.16,VWS V14.01,2013-03-13 02:30:00,
2013-03-12 22:35:00,49.9,28.9,29.93,NW,311,0.0,3.0,44,0.00,,CLR,0.16,VWS V14.01,2013-03-13 02:35:00,
2013-03-12 22:40:00,49.9,30.0,29.93,NW,311,0.0,2.0,46,0.00,,CLR,0.16,VWS V14.01,2013-03-13 02:40:00,
2013-03-12 22:45:00,49.9,29.4,29.94,NW,311,0.0,2.0,45,0.00,,CLR,0.16,VWS V14.01,2013-03-13 02:45:00,
2013-03-12 22:50:00,49.8,28.2,29.94,NW,311,2.0,3.0,43,0.00,,CLR,0.16,VWS V14.01,2013-03-13 02:50:00,
2013-03-12 22:55:00,49.8,28.8,29.94,WNW,288,0.0,4.0,44,0.00,,CLR,0.16,VWS V14.01,2013-03-13 02:55:00,
2013-03-12 23:00:00,49.6,28.6,29.94,WNW,292,3.0,6.0,44,0.00,,CLR,0.16,VWS V14.01,2013-03-13 03:00:00,
2013-03-12 23:05:00,49.6,27.5,29.94,WNW,298,0.0,4.0,42,0.00,,CLR,0.16,VWS V14.01,2013-03-13 03:05:00,
2013-03-12 23:10:00,49.5,27.4,29.94,WNW,298,0.0,3.0,42,0.00,,CLR,0.16,VWS V14.01,2013-03-13 03:10:00,
2013-03-12 23:15:00,49.5,27.4,29.95,WNW,298,0.0,2.0,42,0.00,,CLR,0.16,VWS V14.01,2013-03-13 03:15:00,
2013-03-12 23:20:00,49.4,29.0,29.95,WNW,288,2.0,3.0,45,0.00,,CLR,0.16,VWS V14.01,2013-03-13 03:20:00,
2013-03-12 23:25:00,49.1,28.7,29.95,WNW,288,0.0,1.0,45,0.00,,CLR,0.16,VWS V14.01,2013-03-13 03:25:00,
2013-03-12 23:30:00,48.8,27.9,29.96,WNW,288,0.0,2.0,44,0.00,,CLR,0.16,VWS V14.01,2013-03-13 03:30:00,
2013-03-12 23:35:00,48.6,28.2,29.96,WNW,288,0.0,2.0,45,0.00,,CLR,0.16,VWS V14.01,2013-03-13 03:35:00,
2013-03-12 23:40:00,48.3,29.5,29.96,WNW,288,0.0,1.0,48,0.00,,CLR,0.16,VWS V14.01,2013-03-13 03:40:00,
2013-03-12 23:45:00,47.9,28.7,29.96,WNW,288,0.0,1.0,47,0.00,,CLR,0.16,VWS V14.01,2013-03-13 03:45:00,
2013-03-12 23:50:00,47.6,28.4,29.96,WNW,288,0.0,0.0,47,0.00,,CLR,0.16,VWS V14.01,2013-03-13 03:50:00,
2013-03-12 23:55:00,47.3,28.1,29.96,WNW,288,0.0,2.0,47,0.00,,CLR,0.16,VWS V14.01,2013-03-13 03:55:00,